Time;durP1;ratioP1;P1;durP2;ratioP2;P2;SDS_P1;SDS_P2;PMS_P1;PMS_P2;Temp;Humidity;BMP_temperature;BMP_pressure;BME280_temperature;BME280_humidity;BME280_pressure;Samples;Min_cycle;Max_cycle;Signal;HPM_P1;HPM_P2
2022/09/23 00:00:13;;;;;;;4.67;3.47;;;;;;;9.55;100.00;96829.75;4915384;29;20303;-54
2022/09/23 00:02:41;;;;;;;5.40;3.90;;;;;;;9.58;100.00;96832.13;4915450;29;20208;-54
2022/09/23 00:05:10;;;;;;;4.40;3.60;;;;;;;9.56;100.00;96831.44;4918293;29;20685;-55
2022/09/23 00:07:37;;;;;;;4.10;3.50;;;;;;;9.54;100.00;96833.38;4912776;29;20218;-54
2022/09/23 00:10:06;;;;;;;4.30;3.70;;;;;;;9.51;100.00;96838.91;4907969;29;20296;-55
2022/09/23 00:12:33;;;;;;;4.73;3.37;;;;;;;9.51;100.00;96838.91;4908064;29;20214;-54
2022/09/23 00:15:00;;;;;;;5.90;3.97;;;;;;;9.49;100.00;96840.88;4909100;29;20609;-54
2022/09/23 00:17:27;;;;;;;4.00;3.70;;;;;;;9.52;100.00;96839.75;4894267;29;20545;-54
2022/09/23 00:19:55;;;;;;;4.53;4.13;;;;;;;9.52;100.00;96834.47;4908386;29;20208;-54
2022/09/23 00:22:21;;;;;;;4.10;3.80;;;;;;;9.50;100.00;96831.94;4908377;29;20456;-54
2022/09/23 00:24:48;;;;;;;5.13;4.13;;;;;;;9.49;100.00;96839.03;4908421;29;20295;-54
2022/09/23 00:27:19;;;;;;;4.37;3.83;;;;;;;9.42;100.00;96845.81;4909032;29;20219;-55
2022/09/23 00:29:46;;;;;;;6.00;4.30;;;;;;;9.41;100.00;96843.31;4909799;29;20230;-55
2022/09/23 00:32:13;;;;;;;4.73;4.10;;;;;;;9.37;100.00;96844.53;4909006;29;20214;-54
2022/09/23 00:34:39;;;;;;;6.57;4.40;;;;;;;9.41;100.00;96840.66;4909183;29;20315;-54
2022/09/23 00:37:06;;;;;;;4.50;4.13;;;;;;;9.43;100.00;96841.38;4908779;29;20614;-52
2022/09/23 00:39:33;;;;;;;5.83;4.43;;;;;;;9.44;100.00;96838.59;4907240;29;20246;-55
2022/09/23 00:41:59;;;;;;;5.40;4.47;;;;;;;9.41;100.00;96843.31;4907994;29;20286;-54
2022/09/23 00:44:45;;;;;;;4.43;3.97;;;;;;;9.32;100.00;96836.16;4907071;29;21429;-53
2022/09/23 00:47:21;;;;;;;4.90;4.40;;;;;;;9.30;100.00;96835.47;4907265;29;20287;-55
2022/09/23 00:49:52;;;;;;;4.70;4.30;;;;;;;9.30;100.00;96825.75;4907032;29;20224;-54
2022/09/23 00:52:19;;;;;;;5.60;4.27;;;;;;;9.35;100.00;96822.72;4906939;29;20200;-54
2022/09/23 00:54:47;;;;;;;4.67;3.87;;;;;;;9.32;100.00;96829.09;4907216;29;20246;-55
2022/09/23 00:57:14;;;;;;;4.03;3.73;;;;;;;9.31;100.00;96826.59;4906634;29;20208;-54
2022/09/23 00:59:42;;;;;;;6.73;4.00;;;;;;;9.24;100.00;96823.66;4907258;29;20303;-54
2022/09/23 01:02:11;;;;;;;4.60;4.20;;;;;;;9.25;100.00;96824.44;4906978;29;20204;-54
2022/09/23 01:04:40;;;;;;;4.77;4.10;;;;;;;9.26;100.00;96812.94;4907062;29;20208;-54
2022/09/23 01:07:06;;;;;;;4.37;3.97;;;;;;;9.24;100.00;96818.38;4907136;29;20298;-53
2022/09/23 01:09:33;;;;;;;5.07;3.80;;;;;;;9.23;100.00;96815.84;4907027;29;20645;-55
2022/09/23 01:12:07;;;;;;;4.43;4.03;;;;;;;9.16;100.00;96812.06;4907752;29;20231;-55
2022/09/23 01:14:37;;;;;;;4.20;3.90;;;;;;;9.22;100.00;96816.81;4907580;29;20244;-54
2022/09/23 01:17:09;;;;;;;4.30;3.90;;;;;;;9.24;100.00;96817.53;4910592;29;20235;-53
2022/09/23 01:19:59;;;;;;;3.90;3.60;;;;;;;9.20;100.00;96816.13;4908107;29;20247;-55
2022/09/23 01:22:30;;;;;;;5.57;4.23;;;;;;;9.21;100.00;96821.25;4909819;29;21429;-54
2022/09/23 01:25:24;;;;;;;5.50;3.93;;;;;;;9.16;100.00;96810.25;4910477;29;20242;-54
2022/09/23 01:28:10;;;;;;;3.80;3.50;;;;;;;9.14;100.00;96819.28;4908554;29;20215;-54
2022/09/23 01:30:46;;;;;;;4.60;4.13;;;;;;;9.12;100.00;96815.91;4907987;29;20208;-55
2022/09/23 01:33:19;;;;;;;4.20;3.80;;;;;;;9.16;100.00;96812.91;4908611;29;20650;-54
2022/09/23 01:35:54;;;;;;;5.67;3.93;;;;;;;9.05;100.00;96815.59;4906508;29;20307;-53
2022/09/23 01:38:29;;;;;;;4.13;3.83;;;;;;;9.02;100.00;96815.03;4907031;29;20222;-54
2022/09/23 01:41:02;;;;;;;4.60;4.20;;;;;;;9.02;100.00;96813.22;4908662;29;20207;-54
2022/09/23 01:43:34;;;;;;;4.97;3.77;;;;;;;8.98;100.00;96811.81;4907417;29;20236;-53
2022/09/23 01:46:08;;;;;;;5.60;3.90;;;;;;;8.98;100.00;96810.00;4907748;29;20204;-54
2022/09/23 01:48:38;;;;;;;5.00;4.20;;;;;;;9.00;100.00;96808.06;4907858;29;20268;-54
2022/09/23 01:51:09;;;;;;;4.27;3.87;;;;;;;8.98;100.00;96820.56;4908208;29;20250;-54
2022/09/23 01:53:40;;;;;;;6.67;4.30;;;;;;;8.96;100.00;96817.19;4907860;29;20209;-54
2022/09/23 01:56:10;;;;;;;4.60;4.20;;;;;;;8.91;100.00;96810.66;4907149;29;20239;-54
2022/09/23 01:58:41;;;;;;;4.07;3.77;;;;;;;8.92;100.00;96809.69;4907654;29;20188;-54
2022/09/23 02:01:13;;;;;;;4.83;4.03;;;;;;;8.90;100.00;96801.91;4909687;29;20211;-54
2022/09/23 02:03:42;;;;;;;4.57;4.17;;;;;;;8.96;100.00;96806.66;4913194;29;20209;-55
2022/09/23 02:06:12;;;;;;;4.70;4.33;;;;;;;8.97;100.00;96808.34;4911684;29;20294;-52
2022/09/23 02:08:43;;;;;;;4.60;4.30;;;;;;;8.93;100.00;96811.34;4906552;29;20204;-53
2022/09/23 02:11:12;;;;;;;4.60;4.23;;;;;;;8.88;100.00;96810.91;4905694;29;20235;-53
2022/09/23 02:13:43;;;;;;;4.93;4.40;;;;;;;8.82;100.00;96814.88;4906310;29;20214;-54
2022/09/23 02:16:15;;;;;;;4.47;4.10;;;;;;;8.83;100.00;96807.81;4905608;29;20254;-52
2022/09/23 02:18:45;;;;;;;7.10;4.43;;;;;;;8.80;100.00;96814.19;4918935;29;20200;-54
2022/09/23 02:21:13;;;;;;;8.00;4.77;;;;;;;8.76;100.00;96810.13;4924839;29;20224;-55
2022/09/23 02:23:42;;;;;;;4.50;4.10;;;;;;;8.79;100.00;96816.94;4922814;29;20224;-52
2022/09/23 02:26:18;;;;;;;4.80;4.30;;;;;;;8.80;100.00;96808.91;4913838;29;21356;-54
2022/09/23 02:28:51;;;;;;;4.90;4.50;;;;;;;8.86;100.00;96808.38;4906404;29;20239;-54
2022/09/23 02:31:30;;;;;;;4.67;4.27;;;;;;;8.88;100.00;96808.28;4907723;29;20246;-52
2022/09/23 02:34:00;;;;;;;4.33;4.00;;;;;;;8.90;100.00;96804.53;4909352;29;20200;-51
2022/09/23 02:36:30;;;;;;;5.50;4.80;;;;;;;8.82;100.00;96811.44;4909025;29;20314;-54
2022/09/23 02:38:59;;;;;;;5.00;4.60;;;;;;;8.75;100.00;96813.72;4908521;29;20227;-54
2022/09/23 02:41:28;;;;;;;5.03;4.60;;;;;;;8.74;100.00;96809.44;4909282;29;20375;-53
2022/09/23 02:43:59;;;;;;;5.03;4.60;;;;;;;8.75;100.00;96811.09;4908723;29;20315;-53
2022/09/23 02:46:28;;;;;;;6.20;5.13;;;;;;;8.70;100.00;96807.16;4909560;29;20207;-53
2022/09/23 02:49:00;;;;;;;6.23;5.17;;;;;;;8.64;100.00;96805.06;4909119;29;20268;-54
2022/09/23 02:51:27;;;;;;;6.20;5.07;;;;;;;8.60;100.00;96799.19;4908830;29;20204;-54
2022/09/23 02:53:55;;;;;;;6.00;5.37;;;;;;;8.64;100.00;96799.78;4909345;29;20217;-53
2022/09/23 02:56:22;;;;;;;5.80;4.53;;;;;;;8.56;100.00;96800.41;4908635;29;20219;-54
2022/09/23 02:58:50;;;;;;;5.57;5.17;;;;;;;8.63;100.00;96803.38;4908777;29;20220;-54
2022/09/23 03:01:26;;;;;;;5.63;5.13;;;;;;;8.62;100.00;96802.53;4908888;29;20263;-53
2022/09/23 03:03:58;;;;;;;5.60;5.10;;;;;;;8.56;100.00;96787.22;4908951;29;20595;-54
2022/09/23 03:06:28;;;;;;;5.57;5.07;;;;;;;8.54;100.00;96786.50;4908824;29;20290;-53
2022/09/23 03:08:59;;;;;;;5.47;4.93;;;;;;;8.53;100.00;96802.47;4908954;29;20279;-54
2022/09/23 03:11:26;;;;;;;5.47;4.97;;;;;;;8.48;100.00;96787.03;4908724;29;20240;-53
2022/09/23 03:14:03;;;;;;;5.77;5.03;;;;;;;8.44;100.00;96791.72;4908590;29;20303;-53
2022/09/23 03:16:34;;;;;;;5.23;4.73;;;;;;;8.45;100.00;96795.19;4920762;29;20212;-52
2022/09/23 03:19:18;;;;;;;5.33;4.83;;;;;;;8.42;100.00;96795.44;4923544;29;20227;-54
2022/09/23 03:21:51;;;;;;;4.93;4.53;;;;;;;8.36;100.00;96795.94;4908764;29;20241;-53
2022/09/23 03:24:18;;;;;;;6.33;4.97;;;;;;;8.30;100.00;96792.00;4919951;29;20204;-53
2022/09/23 03:26:47;;;;;;;5.20;4.80;;;;;;;8.31;100.00;96792.84;4921673;29;20325;-52
2022/09/23 03:29:14;;;;;;;5.30;4.90;;;;;;;8.28;100.00;96793.06;4915572;29;20215;-54
2022/09/23 03:31:42;;;;;;;5.77;5.27;;;;;;;8.30;100.00;96792.00;4908142;29;20605;-52
2022/09/23 03:34:14;;;;;;;5.50;5.10;;;;;;;8.28;100.00;96790.44;4907516;29;20216;-54
2022/09/23 03:36:52;;;;;;;5.47;4.80;;;;;;;8.28;100.00;96796.56;4908836;29;20219;-51
2022/09/23 03:39:28;;;;;;;5.93;5.13;;;;;;;8.27;100.00;96791.38;4907383;29;20204;-53
2022/09/23 03:41:57;;;;;;;5.57;5.10;;;;;;;8.24;100.00;96789.84;4907645;29;20295;-53
2022/09/23 03:44:24;;;;;;;7.83;5.20;;;;;;;8.23;100.00;96793.44;4908521;29;20347;-53
2022/09/23 03:46:50;;;;;;;5.70;4.97;;;;;;;8.17;100.00;96799.22;4908225;29;20279;-52
2022/09/23 03:49:26;;;;;;;8.47;5.07;;;;;;;8.21;100.00;96794.53;4907954;29;20223;-53
2022/09/23 03:51:52;;;;;;;6.20;5.60;;;;;;;8.20;100.00;96798.13;4908022;29;20609;-51
2022/09/23 03:54:19;;;;;;;6.67;5.97;;;;;;;8.19;100.00;96799.91;4907771;29;20738;-52
2022/09/23 03:56:47;;;;;;;6.07;5.57;;;;;;;8.17;100.00;96795.72;4908497;29;20699;-53
2022/09/23 03:59:14;;;;;;;6.33;5.83;;;;;;;8.18;100.00;96786.88;4908770;29;20215;-52
2022/09/23 04:01:41;;;;;;;5.70;5.13;;;;;;;8.15;100.00;96785.31;4908356;29;20204;-52
2022/09/23 04:04:08;;;;;;;5.60;5.10;;;;;;;8.18;100.00;96792.16;4907263;29;20209;-52
2022/09/23 04:06:36;;;;;;;5.83;5.33;;;;;;;8.18;100.00;96794.78;4907900;29;20200;-52
2022/09/23 04:09:03;;;;;;;11.03;5.83;;;;;;;8.22;100.00;96794.38;4908906;29;20205;-53
2022/09/23 04:11:30;;;;;;;6.07;5.47;;;;;;;8.21;100.00;96789.25;4914535;29;20702;-53
2022/09/23 04:13:56;;;;;;;5.40;5.00;;;;;;;8.19;100.00;96785.91;4911815;29;20210;-53
2022/09/23 04:16:23;;;;;;;7.43;6.27;;;;;;;8.18;100.00;96789.50;4911841;29;20255;-53
2022/09/23 04:18:50;;;;;;;9.03;5.63;;;;;;;8.13;100.00;96789.03;4910516;29;20205;-53
2022/09/23 04:21:17;;;;;;;10.20;7.23;;;;;;;8.14;100.00;96796.81;4907740;29;20250;-53
2022/09/23 04:23:45;;;;;;;7.67;6.70;;;;;;;8.10;100.00;96789.28;4908279;29;20247;-51
2022/09/23 04:26:12;;;;;;;5.77;5.37;;;;;;;8.12;100.00;96790.00;4907508;29;20206;-54
2022/09/23 04:28:39;;;;;;;6.33;5.77;;;;;;;8.12;100.00;96790.00;4907679;29;20243;-53
2022/09/23 04:31:06;;;;;;;6.90;6.20;;;;;;;8.06;100.00;96788.69;4907891;29;20275;-53
2022/09/23 04:33:33;;;;;;;6.23;5.70;;;;;;;8.05;100.00;96794.06;4907748;29;20303;-52
2022/09/23 04:36:00;;;;;;;6.40;5.80;;;;;;;7.98;100.00;96797.22;4907602;29;20618;-54
2022/09/23 04:38:27;;;;;;;6.10;5.50;;;;;;;7.96;100.00;96791.25;4908931;29;20645;-53
2022/09/23 04:40:55;;;;;;;7.43;6.00;;;;;;;7.93;100.00;96794.13;4915663;29;20243;-53
2022/09/23 04:43:23;;;;;;;6.53;5.97;;;;;;;7.91;100.00;96795.19;4921250;29;20209;-53
2022/09/23 04:45:57;;;;;;;6.37;5.83;;;;;;;7.86;100.00;96797.38;4924864;29;20200;-53
2022/09/23 04:48:24;;;;;;;6.20;5.70;;;;;;;7.81;100.00;96795.09;4924012;29;20201;-53
2022/09/23 04:50:51;;;;;;;6.13;5.63;;;;;;;7.86;100.00;96798.22;4926484;29;20240;-53
2022/09/23 04:53:18;;;;;;;6.63;5.93;;;;;;;7.77;100.00;96793.66;4906942;29;20222;-54
2022/09/23 04:55:44;;;;;;;6.37;5.87;;;;;;;7.76;100.00;96792.00;4907065;29;20214;-53
2022/09/23 04:58:13;;;;;;;5.80;5.30;;;;;;;7.78;100.00;96795.34;4907485;29;20300;-53
2022/09/23 05:00:39;;;;;;;6.07;5.53;;;;;;;7.78;100.00;96795.34;4906860;29;20227;-54
2022/09/23 05:03:07;;;;;;;9.23;6.20;;;;;;;7.78;100.00;96792.72;4907028;29;20217;-53
2022/09/23 05:05:33;;;;;;;6.20;5.70;;;;;;;7.79;100.00;96790.94;4907122;29;20714;-52
2022/09/23 05:08:00;;;;;;;7.27;6.10;;;;;;;7.78;100.00;96794.50;4907808;29;20196;-53
2022/09/23 05:10:27;;;;;;;7.17;5.97;;;;;;;7.76;100.00;96788.53;4907189;29;20216;-53
2022/09/23 05:12:54;;;;;;;6.87;6.00;;;;;;;7.76;100.00;96797.25;4907316;29;20634;-53
2022/09/23 05:15:25;;;;;;;7.00;6.13;;;;;;;7.76;100.00;96793.81;4907186;29;20606;-52
2022/09/23 05:17:52;;;;;;;6.33;5.80;;;;;;;7.78;100.00;96795.34;4906575;29;20366;-54
2022/09/23 05:20:19;;;;;;;6.60;6.10;;;;;;;7.79;100.00;96806.72;4907125;29;20240;-50
2022/09/23 05:22:46;;;;;;;6.77;6.07;;;;;;;7.79;100.00;96796.19;4906899;29;20243;-52
2022/09/23 05:25:12;;;;;;;6.27;5.73;;;;;;;7.84;100.00;96799.28;4906546;29;20288;-52
2022/09/23 05:27:39;;;;;;;6.40;5.90;;;;;;;7.89;100.00;96803.22;4906127;29;20241;-51
2022/09/23 05:30:07;;;;;;;6.33;5.60;;;;;;;7.97;100.00;96800.81;4906954;29;20717;-53
2022/09/23 05:32:36;;;;;;;6.60;6.03;;;;;;;7.98;100.00;96809.53;4906518;29;20247;-52
2022/09/23 05:35:03;;;;;;;6.80;6.20;;;;;;;7.90;100.00;96804.88;4906881;29;20388;-51
2022/09/23 05:37:31;;;;;;;7.40;6.10;;;;;;;7.96;100.00;96800.94;4906511;29;20247;-51
2022/09/23 05:39:58;;;;;;;8.17;5.97;;;;;;;7.95;100.00;96805.38;4906532;29;20204;-51
2022/09/23 05:42:25;;;;;;;7.83;7.13;;;;;;;7.98;100.00;96806.91;4907353;29;20576;-51
2022/09/23 05:44:51;;;;;;;8.80;7.57;;;;;;;8.00;100.00;96811.13;4905550;29;20255;-51
2022/09/23 05:47:18;;;;;;;8.13;6.10;;;;;;;8.06;100.00;96816.84;4907413;29;20339;-51
2022/09/23 05:49:46;;;;;;;7.40;5.73;;;;;;;8.14;100.00;96817.06;4905772;29;20297;-52
2022/09/23 05:52:13;;;;;;;6.23;5.73;;;;;;;8.18;100.00;96818.50;4905967;29;20228;-52
2022/09/23 05:54:40;;;;;;;7.77;6.53;;;;;;;8.20;100.00;96824.47;4906125;29;20685;-52
2022/09/23 05:57:06;;;;;;;6.13;5.63;;;;;;;8.27;100.00;96820.38;4906123;29;20247;-54
2022/09/23 05:59:33;;;;;;;6.17;5.63;;;;;;;8.32;100.00;96821.72;4906129;29;20215;-52
2022/09/23 06:02:00;;;;;;;6.60;6.00;;;;;;;8.43;100.00;96819.00;4907146;29;20298;-52
2022/09/23 06:04:26;;;;;;;6.17;5.67;;;;;;;8.39;100.00;96835.22;4906814;29;20212;-51
2022/09/23 06:06:56;;;;;;;6.70;6.03;;;;;;;8.44;100.00;96825.97;4905285;29;20299;-54
2022/09/23 06:09:23;;;;;;;7.00;6.10;;;;;;;8.65;100.00;96833.91;4906502;29;20283;-53
2022/09/23 06:11:50;;;;;;;6.80;6.10;;;;;;;8.82;100.00;96835.97;4906045;29;20319;-54
2022/09/23 06:14:17;;;;;;;8.27;6.20;;;;;;;8.99;100.00;96835.44;4905668;29;20637;-53
2022/09/23 06:16:44;;;;;;;6.53;5.93;;;;;;;9.11;100.00;96843.25;4906182;29;20224;-53
2022/09/23 06:19:11;;;;;;;6.77;6.07;;;;;;;9.21;100.00;96838.91;4906652;29;20223;-52
2022/09/23 06:21:39;;;;;;;6.83;6.13;;;;;;;9.48;100.00;96831.25;4906449;29;20304;-54
2022/09/23 06:24:08;;;;;;;7.90;6.00;;;;;;;9.73;100.00;96837.91;4906135;29;20292;-53
2022/09/23 06:26:36;;;;;;;7.80;5.70;;;;;;;10.41;100.00;96834.50;4905622;29;20305;-54
2022/09/23 06:29:05;;;;;;;5.87;5.37;;;;;;;11.10;98.36;96829.06;4905961;29;20275;-54
2022/09/23 06:31:32;;;;;;;6.13;5.63;;;;;;;11.78;93.33;96823.47;4906643;29;20552;-53
2022/09/23 06:33:58;;;;;;;6.07;5.50;;;;;;;12.49;89.57;96826.28;4905505;29;20292;-54
2022/09/23 06:36:25;;;;;;;5.97;5.03;;;;;;;12.87;85.98;96833.94;4906679;29;20214;-53
2022/09/23 06:38:52;;;;;;;5.40;4.90;;;;;;;13.54;82.28;96837.78;4905403;29;20218;-55
2022/09/23 06:41:20;;;;;;;5.57;5.07;;;;;;;13.68;81.51;96829.22;4906841;29;20331;-53
2022/09/23 06:43:47;;;;;;;5.00;4.50;;;;;;;13.96;79.66;96827.22;4905726;29;20262;-54
2022/09/23 06:46:15;;;;;;;5.10;4.70;;;;;;;14.03;80.11;96830.91;4905638;29;20216;-54
2022/09/23 06:48:43;;;;;;;5.97;4.70;;;;;;;13.78;79.30;96829.94;4906047;29;20211;-54
2022/09/23 06:51:11;;;;;;;5.30;4.80;;;;;;;13.83;78.52;96824.16;4904862;29;20215;-54
2022/09/23 06:53:38;;;;;;;5.67;5.10;;;;;;;13.64;80.82;96833.19;4915442;29;20216;-53
2022/09/23 06:56:06;;;;;;;5.77;5.27;;;;;;;13.45;79.46;96828.09;4920762;29;20224;-54
2022/09/23 06:58:35;;;;;;;7.20;5.50;;;;;;;13.12;82.52;96829.69;4909200;29;20232;-53
2022/09/23 07:01:02;;;;;;;8.37;5.47;;;;;;;13.04;84.85;96826.13;4908386;29;20371;-53
2022/09/23 07:03:30;;;;;;;6.20;5.60;;;;;;;12.70;86.35;96832.13;4910544;29;20304;-53
2022/09/23 07:05:57;;;;;;;10.97;6.23;;;;;;;12.48;86.87;96837.84;4909936;29;20208;-52
2022/09/23 07:08:25;;;;;;;8.93;6.47;;;;;;;12.41;89.71;96839.44;4907991;29;20231;-54
2022/09/23 07:10:52;;;;;;;7.30;6.63;;;;;;;12.47;89.67;96836.19;4909311;29;20643;-54
2022/09/23 07:13:19;;;;;;;7.07;6.47;;;;;;;12.42;90.98;96838.47;4907674;29;20212;-54
2022/09/23 07:15:50;;;;;;;9.30;7.13;;;;;;;12.34;91.39;96833.91;4906403;29;20659;-53
2022/09/23 07:18:17;;;;;;;7.97;7.17;;;;;;;12.38;91.68;96837.09;4908973;29;20277;-54
2022/09/23 07:20:44;;;;;;;8.73;7.83;;;;;;;12.28;89.34;96831.84;4908697;29;20240;-53
2022/09/23 07:23:11;;;;;;;11.10;7.57;;;;;;;12.32;91.62;96835.03;4908625;29;20199;-52
2022/09/23 07:25:37;;;;;;;8.60;7.37;;;;;;;12.46;89.87;96834.53;4908664;29;20307;-54
2022/09/23 07:28:04;;;;;;;9.23;7.37;;;;;;;12.53;91.92;96830.28;4909478;29;20291;-54
2022/09/23 07:30:30;;;;;;;7.97;7.27;;;;;;;12.70;91.27;96825.97;4908681;29;20307;-54
2022/09/23 07:32:58;;;;;;;8.57;7.77;;;;;;;12.72;89.13;96834.59;4908944;29;20208;-52
2022/09/23 07:35:26;;;;;;;10.43;7.37;;;;;;;12.71;90.63;96833.78;4909532;29;20303;-52
2022/09/23 07:37:53;;;;;;;9.17;7.80;;;;;;;12.78;90.03;96826.91;4908849;29;20326;-54
2022/09/23 07:40:20;;;;;;;9.03;7.90;;;;;;;12.84;89.67;96831.59;4907938;29;20215;-53
2022/09/23 07:42:46;;;;;;;11.03;8.33;;;;;;;12.82;89.63;96830.09;4908415;29;20216;-52
2022/09/23 07:45:14;;;;;;;9.90;7.83;;;;;;;12.84;89.11;96834.25;4908701;29;20271;-53
2022/09/23 07:47:41;;;;;;;9.07;7.80;;;;;;;12.83;90.61;96832.56;4909218;29;20216;-53
2022/09/23 07:50:10;;;;;;;10.03;7.77;;;;;;;12.89;92.01;96834.59;4908747;29;20527;-52
2022/09/23 07:52:37;;;;;;;9.33;7.37;;;;;;;12.93;90.01;96837.81;4908578;29;20300;-54
2022/09/23 07:55:04;;;;;;;7.97;7.20;;;;;;;12.96;90.49;96838.34;4908796;29;20556;-53
2022/09/23 07:57:31;;;;;;;7.97;7.17;;;;;;;13.13;91.10;96838.50;4908601;29;20263;-53
2022/09/23 07:59:59;;;;;;;9.30;7.57;;;;;;;13.12;90.59;96836.81;4908129;29;20208;-53
2022/09/23 08:02:25;;;;;;;9.20;7.80;;;;;;;13.21;89.27;96836.75;4908806;29;20280;-54
2022/09/23 08:04:53;;;;;;;10.80;8.17;;;;;;;13.37;89.87;96838.66;4908511;29;20216;-52
2022/09/23 08:07:21;;;;;;;8.37;7.43;;;;;;;13.40;88.73;96835.69;4908775;29;20200;-54
2022/09/23 08:09:48;;;;;;;8.97;8.10;;;;;;;13.47;88.68;96839.41;4908284;29;20236;-53
2022/09/23 08:12:16;;;;;;;7.97;7.20;;;;;;;13.48;88.56;96833.09;4908142;29;20237;-53
2022/09/23 08:14:43;;;;;;;9.70;7.67;;;;;;;13.54;87.29;96836.94;4908224;29;20279;-54
2022/09/23 08:17:11;;;;;;;8.97;7.80;;;;;;;13.55;87.24;96844.78;4907750;29;20242;-53
2022/09/23 08:19:38;;;;;;;8.50;7.70;;;;;;;13.48;88.90;96841.06;4907618;29;20223;-52
2022/09/23 08:22:04;;;;;;;10.10;8.27;;;;;;;13.51;86.69;96843.41;4907904;29;20605;-53
2022/09/23 08:24:32;;;;;;;8.60;7.80;;;;;;;13.62;88.16;96832.53;4907475;29;20251;-52
2022/09/23 08:26:59;;;;;;;8.53;7.70;;;;;;;13.67;86.65;96838.22;4907775;29;20307;-53
2022/09/23 08:29:26;;;;;;;13.23;7.97;;;;;;;13.80;87.84;96838.63;4909706;29;20216;-54
2022/09/23 08:31:53;;;;;;;8.70;7.77;;;;;;;13.87;86.36;96831.69;4918910;29;20481;-54
2022/09/23 08:34:21;;;;;;;7.77;6.93;;;;;;;14.02;85.33;96834.56;4913407;29;20308;-54
2022/09/23 08:36:48;;;;;;;9.90;8.07;;;;;;;14.17;86.65;96832.16;4907697;29;20218;-55
2022/09/23 08:39:16;;;;;;;10.83;7.40;;;;;;;14.23;84.88;96828.84;4907947;29;20298;-55
2022/09/23 08:41:49;;;;;;;10.97;7.97;;;;;;;14.25;85.49;96837.47;4908914;29;20267;-53
2022/09/23 08:44:19;;;;;;;12.23;8.13;;;;;;;14.35;87.44;96828.38;4909797;29;20331;-54
2022/09/23 08:46:49;;;;;;;9.30;8.23;;;;;;;14.38;84.71;96829.91;4910159;29;20208;-55
2022/09/23 08:49:22;;;;;;;10.93;7.87;;;;;;;14.58;84.64;96828.63;4911436;29;20418;-53
2022/09/23 08:51:50;;;;;;;10.33;8.07;;;;;;;14.65;83.58;96826.16;4909611;29;20656;-55
2022/09/23 08:54:17;;;;;;;9.07;8.20;;;;;;;14.80;83.47;96822.69;4911734;29;20200;-53
2022/09/23 08:56:51;;;;;;;12.20;8.23;;;;;;;14.72;82.19;96824.50;4907891;29;20235;-54
2022/09/23 08:59:19;;;;;;;8.57;7.77;;;;;;;14.76;81.07;96826.66;4907165;29;20286;-53
2022/09/23 09:01:48;;;;;;;9.57;8.33;;;;;;;15.00;81.34;96822.34;4907970;29;20293;-54
2022/09/23 09:04:17;;;;;;;8.77;7.60;;;;;;;15.19;81.81;96824.69;4907579;29;20312;-53
2022/09/23 09:06:46;;;;;;;10.23;7.80;;;;;;;15.37;82.12;96807.50;4907381;29;20239;-54
2022/09/23 09:09:20;;;;;;;9.00;8.17;;;;;;;15.36;78.43;96811.19;4906201;29;20208;-54
2022/09/23 09:11:49;;;;;;;13.00;8.23;;;;;;;15.47;79.49;96815.34;4906473;29;20665;-53
2022/09/23 09:14:21;;;;;;;9.20;7.73;;;;;;;15.68;80.16;96813.00;4906662;29;20236;-54
2022/09/23 09:16:56;;;;;;;7.50;6.80;;;;;;;15.91;79.40;96800.59;4907395;29;20205;-55
2022/09/23 09:19:46;;;;;;;10.50;7.63;;;;;;;15.99;77.74;96793.56;4907985;29;20220;-54
2022/09/23 09:22:19;;;;;;;8.65;7.75;;;;;;;16.19;76.21;96800.16;4905632;29;20228;-54
2022/09/23 09:24:48;;;;;;;8.95;8.05;;;;;;;16.39;76.67;96788.03;4909327;29;20230;-54
2022/09/23 09:27:16;;;;;;;8.40;7.60;;;;;;;16.63;75.76;96793.25;4909790;29;20363;-54
2022/09/23 09:29:46;;;;;;;11.33;8.10;;;;;;;16.78;73.80;96779.97;4911698;29;20300;-54
2022/09/23 09:32:18;;;;;;;8.90;8.07;;;;;;;16.64;73.72;96784.25;4910938;29;20223;-56
2022/09/23 09:34:52;;;;;;;8.82;7.93;;;;;;;16.85;73.43;96779.09;4909267;29;20299;-54
2022/09/23 09:37:24;;;;;;;8.98;7.75;;;;;;;17.18;72.40;96773.47;4908389;29;20540;-55
2022/09/23 09:39:51;;;;;;;8.35;7.40;;;;;;;17.54;73.26;96769.09;4909127;29;20295;-52
2022/09/23 09:42:22;;;;;;;10.50;7.55;;;;;;;17.76;72.31;96764.72;4907250;29;20244;-55
2022/09/23 09:44:51;;;;;;;8.30;7.55;;;;;;;18.15;71.79;96770.59;4905734;29;20242;-54
2022/09/23 09:47:28;;;;;;;9.73;7.25;;;;;;;18.51;69.98;96761.75;4905655;29;20223;-55
2022/09/23 09:49:57;;;;;;;6.50;4.97;;;;;;;18.73;65.02;96758.94;4905215;29;20661;-55
2022/09/23 09:52:27;;;;;;;5.22;4.75;;;;;;;18.84;64.35;96760.28;4905376;29;20597;-54
2022/09/23 09:54:55;;;;;;;6.85;4.47;;;;;;;19.16;62.50;96750.88;4905141;29;20204;-54
2022/09/23 09:57:32;;;;;;;6.13;4.40;;;;;;;19.45;64.33;96747.19;4905102;29;20312;-55
2022/09/23 10:00:18;;;;;;;6.15;4.80;;;;;;;19.58;62.18;96747.28;4905308;29;20246;-55
2022/09/23 10:02:45;;;;;;;4.22;3.83;;;;;;;19.69;60.49;96747.56;4906664;29;20303;-54
2022/09/23 10:05:25;;;;;;;5.75;4.43;;;;;;;19.82;61.42;96744.13;4906293;29;20299;-55
2022/09/23 10:07:52;;;;;;;5.55;4.40;;;;;;;19.89;60.34;96742.31;4905582;29;20200;-55
2022/09/23 10:10:21;;;;;;;4.70;3.80;;;;;;;20.06;59.26;96734.75;4905625;29;20279;-54
2022/09/23 10:12:51;;;;;;;5.25;4.50;;;;;;;20.20;58.56;96744.50;4905634;29;20231;-55
2022/09/23 10:15:32;;;;;;;7.15;6.45;;;;;;;20.43;58.48;96744.22;4906081;29;20212;-55
2022/09/23 10:18:01;;;;;;;7.35;3.83;;;;;;;20.43;56.74;96741.53;4905805;29;20236;-53
2022/09/23 10:20:34;;;;;;;7.65;3.78;;;;;;;20.39;56.96;96735.75;4906022;29;20223;-54
2022/09/23 10:23:06;;;;;;;5.60;4.38;;;;;;;20.53;57.41;96739.28;4915160;29;20748;-54
2022/09/23 10:25:35;;;;;;;4.10;3.63;;;;;;;20.94;56.94;96734.59;4924702;29;20207;-56
2022/09/23 10:28:37;;;;;;;4.13;3.83;;;;;;;20.85;55.08;96727.78;4926670;29;20279;-56
2022/09/23 10:31:05;;;;;;;4.53;4.13;;;;;;;20.67;54.91;96727.53;4914537;29;20200;-55
2022/09/23 10:33:32;;;;;;;4.10;3.40;;;;;;;20.85;57.46;96738.53;4908296;29;20208;-54
2022/09/23 10:35:59;;;;;;;4.38;3.97;;;;;;;20.93;54.23;96732.97;4910369;29;20287;-55
2022/09/23 10:38:25;;;;;;;4.40;4.10;;;;;;;20.76;54.02;96721.75;4911623;29;20228;-56
2022/09/23 10:46:41;;;;;;;5.22;4.20;;;;;;;20.76;54.43;96713.69;4860577;29;20722;-57
2022/09/23 10:49:29;;;;;;;4.93;4.47;;;;;;;20.85;54.80;96715.16;4901335;29;20205;-55
2022/09/23 10:52:05;;;;;;;4.60;4.07;;;;;;;20.78;56.94;96714.34;4920235;29;20210;-53
2022/09/23 10:54:38;;;;;;;5.72;3.92;;;;;;;20.87;57.85;96711.47;4927298;29;20212;-52
2022/09/23 11:00:00;;;;;;;4.93;4.45;;;;;;;21.00;56.92;96706.06;4928061;29;20208;-56
2022/09/23 11:02:39;;;;;;;5.18;4.55;;;;;;;21.02;56.36;96701.31;4917353;29;20272;-54
2022/09/23 11:05:31;;;;;;;4.88;4.20;;;;;;;21.21;56.65;96697.81;4913881;29;20286;-54
2022/09/23 11:08:06;;;;;;;5.55;4.65;;;;;;;21.41;55.40;96703.19;4912883;29;20208;-55
2022/09/23 11:10:56;;;;;;;5.57;5.07;;;;;;;21.57;55.12;96703.59;4910575;29;20211;-55
2022/09/23 11:13:47;;;;;;;4.97;4.30;;;;;;;21.68;56.22;96694.84;4906772;29;20267;-54
2022/09/23 11:16:24;;;;;;;5.13;4.47;;;;;;;21.72;54.10;96690.69;4909903;29;20307;-54
2022/09/23 11:19:11;;;;;;;5.28;4.00;;;;;;;21.67;55.06;96698.59;4909294;29;20679;-55
2022/09/23 11:21:45;;;;;;;6.60;4.40;;;;;;;21.46;53.35;96685.38;4909462;29;20239;-54
2022/09/23 11:24:27;;;;;;;6.35;4.30;;;;;;;21.33;55.67;96680.00;4909258;29;20806;-55
2022/09/23 11:27:02;;;;;;;3.83;3.53;;;;;;;21.35;56.95;96683.34;4909542;29;20216;-55
2022/09/23 11:29:55;;;;;;;3.92;3.63;;;;;;;21.00;57.18;96679.19;4910002;29;20210;-55
2022/09/23 11:32:40;;;;;;;2.90;2.42;;;;;;;20.76;57.27;96675.25;4910724;29;20292;-55
2022/09/23 11:35:15;;;;;;;3.28;3.08;;;;;;;20.91;55.39;96675.03;4909557;29;20212;-55
2022/09/23 11:37:45;;;;;;;9.00;3.10;;;;;;;20.85;54.59;96682.91;4909641;29;21319;-55
2022/09/23 11:40:15;;;;;;;3.22;2.80;;;;;;;20.95;56.60;96676.28;4909378;29;20295;-55
2022/09/23 11:42:49;;;;;;;5.65;2.83;;;;;;;21.15;55.96;96666.41;4909120;29;20201;-54
2022/09/23 11:45:19;;;;;;;2.75;2.35;;;;;;;21.15;56.55;96671.78;4909253;29;21234;-55
2022/09/23 11:47:50;;;;;;;2.33;2.20;;;;;;;21.47;57.15;96665.50;4908556;29;20287;-55
2022/09/23 11:50:20;;;;;;;3.10;2.28;;;;;;;21.20;54.26;96659.34;4908143;29;20206;-54
2022/09/23 11:52:49;;;;;;;3.03;2.45;;;;;;;21.27;54.32;96662.03;4908239;29;20308;-54